EXS74BM EGBB-LEPA
Flight info
| Callsign | EXS74BM |
|---|---|
| Flight time | N/A |
| Altitude | 37000 |
| Route | CPT UN859 SOPIL DCT BALAN DCT EVPOK DCT NARAK DCT GAI DCT LOMRA DCT ROCAN DCT IBRAP DCT LUKEV DCT LORES |
| Aircraft | B738/M-SDE2E3FGHIRWXY/LB1 |
Departure
| Time | 2026-05-07 14:33 |
|---|---|
| Airport | Birmingham Airport (EGBB) |
Arrival
| Time | N/A |
|---|---|
| Airport | Palma de Mallorca Airport (LEPA) |
| Time | Latitude | Longitude | Altitude | Speed | Heading |
|---|---|---|---|---|---|
| 2026-05-07 14:14 | 52.45467 | -1.74083 | 331 ft | 0 kts | 146° |
| 2026-05-07 14:24 | 52.45469 | -1.74086 | 331 ft | 3 kts | 146° |
| 2026-05-07 14:24 | 52.45491 | -1.74109 | 327 ft | 4 kts | 154° |
| 2026-05-07 14:24 | 52.45515 | -1.74121 | 326 ft | 4 kts | 185° |
| 2026-05-07 14:25 | 52.45537 | -1.74107 | 329 ft | 3 kts | 233° |
| 2026-05-07 14:25 | 52.45542 | -1.74096 | 326 ft | 0 kts | 236° |
| 2026-05-07 14:27 | 52.45527 | -1.74134 | 327 ft | 8 kts | 236° |
| 2026-05-07 14:28 | 52.45496 | -1.74207 | 330 ft | 8 kts | 236° |
| 2026-05-07 14:28 | 52.45469 | -1.74283 | 327 ft | 8 kts | 255° |
| 2026-05-07 14:28 | 52.45496 | -1.74381 | 330 ft | 11 kts | 298° |
| 2026-05-07 14:28 | 52.45505 | -1.74498 | 330 ft | 11 kts | 245° |
| 2026-05-07 14:29 | 52.45513 | -1.74617 | 328 ft | 12 kts | 319° |
| 2026-05-07 14:29 | 52.45582 | -1.74697 | 324 ft | 12 kts | 325° |
| 2026-05-07 14:29 | 52.45657 | -1.74781 | 325 ft | 15 kts | 326° |
| 2026-05-07 14:29 | 52.45742 | -1.74875 | 325 ft | 14 kts | 326° |
| 2026-05-07 14:30 | 52.45835 | -1.74978 | 325 ft | 21 kts | 325° |
| 2026-05-07 14:30 | 52.45970 | -1.75127 | 322 ft | 25 kts | 326° |
| 2026-05-07 14:30 | 52.46114 | -1.75285 | 316 ft | 25 kts | 326° |
| 2026-05-07 14:30 | 52.46264 | -1.75451 | 312 ft | 25 kts | 326° |
| 2026-05-07 14:31 | 52.46402 | -1.75609 | 314 ft | 24 kts | 326° |
| 2026-05-07 14:31 | 52.46534 | -1.75757 | 320 ft | 22 kts | 326° |
| 2026-05-07 14:31 | 52.46617 | -1.75854 | 325 ft | 11 kts | 317° |
| 2026-05-07 14:31 | 52.46613 | -1.75964 | 325 ft | 10 kts | 239° |
| 2026-05-07 14:32 | 52.46573 | -1.76060 | 330 ft | 10 kts | 235° |
| 2026-05-07 14:32 | 52.46515 | -1.76064 | 326 ft | 10 kts | 143° |
| 2026-05-07 14:32 | 52.46378 | -1.75912 | 321 ft | 55 kts | 145° |
| 2026-05-07 14:32 | 52.45827 | -1.75298 | 322 ft | 135 kts | 146° |
| 2026-05-07 14:33 | 52.44878 | -1.74252 | 541 ft | 186 kts | 146° |
| 2026-05-07 14:33 | 52.43730 | -1.72986 | 1220 ft | 206 kts | 147° |
| 2026-05-07 14:33 | 52.42488 | -1.71607 | 1824 ft | 229 kts | 146° |
| 2026-05-07 14:33 | 52.41108 | -1.70093 | 2469 ft | 242 kts | 153° |
| 2026-05-07 14:34 | 52.39488 | -1.69302 | 3223 ft | 247 kts | 168° |
| 2026-05-07 14:34 | 52.37798 | -1.68696 | 4130 ft | 250 kts | 162° |
| 2026-05-07 14:34 | 52.36211 | -1.67509 | 5037 ft | 252 kts | 152° |
| 2026-05-07 14:34 | 52.34649 | -1.66157 | 5883 ft | 257 kts | 155° |
| 2026-05-07 14:35 | 52.32994 | -1.65005 | 6731 ft | 260 kts | 158° |
| 2026-05-07 14:35 | 52.31300 | -1.63910 | 7584 ft | 263 kts | 159° |
| 2026-05-07 14:35 | 52.29606 | -1.62816 | 8374 ft | 266 kts | 158° |
| 2026-05-07 14:35 | 52.27869 | -1.61682 | 9163 ft | 270 kts | 158° |
| 2026-05-07 14:36 | 52.26105 | -1.60524 | 9938 ft | 274 kts | 158° |
| 2026-05-07 14:36 | 52.24312 | -1.59365 | 10626 ft | 283 kts | 160° |
| 2026-05-07 14:36 | 52.22375 | -1.58341 | 10854 ft | 308 kts | 163° |
| 2026-05-07 14:36 | 52.20235 | -1.57294 | 11040 ft | 333 kts | 163° |
| 2026-05-07 14:37 | 52.17956 | -1.56175 | 11491 ft | 346 kts | 163° |
| 2026-05-07 14:37 | 52.13296 | -1.53856 | 13021 ft | 353 kts | 163° |
| 2026-05-07 14:37 | 52.10938 | -1.52664 | 13757 ft | 356 kts | 163° |
| 2026-05-07 14:38 | 52.08557 | -1.51462 | 14454 ft | 360 kts | 163° |
| 2026-05-07 14:38 | 52.06148 | -1.50250 | 15125 ft | 364 kts | 163° |
| 2026-05-07 14:38 | 52.03720 | -1.49032 | 15807 ft | 367 kts | 163° |
| 2026-05-07 14:38 | 52.01268 | -1.47802 | 16471 ft | 371 kts | 164° |
| 2026-05-07 14:39 | 51.98819 | -1.46575 | 17108 ft | 374 kts | 164° |
| 2026-05-07 14:39 | 51.96316 | -1.45321 | 17739 ft | 378 kts | 164° |
| 2026-05-07 14:39 | 51.93793 | -1.44060 | 18356 ft | 381 kts | 164° |
| 2026-05-07 14:39 | 51.91249 | -1.42788 | 18959 ft | 384 kts | 164° |
| 2026-05-07 14:40 | 51.88688 | -1.41510 | 19546 ft | 387 kts | 164° |
| 2026-05-07 14:40 | 51.86098 | -1.40222 | 20105 ft | 390 kts | 164° |
| 2026-05-07 14:40 | 51.83495 | -1.38928 | 20646 ft | 393 kts | 164° |
| 2026-05-07 14:40 | 51.80872 | -1.37625 | 21182 ft | 396 kts | 164° |
| 2026-05-07 14:41 | 51.78213 | -1.36304 | 21708 ft | 399 kts | 163° |
| 2026-05-07 14:41 | 51.75545 | -1.34979 | 22206 ft | 402 kts | 164° |
| 2026-05-07 14:41 | 51.72893 | -1.33666 | 22685 ft | 405 kts | 164° |
| 2026-05-07 14:41 | 51.70187 | -1.32328 | 23148 ft | 408 kts | 164° |
| 2026-05-07 14:42 | 51.67462 | -1.30982 | 23587 ft | 411 kts | 164° |
| 2026-05-07 14:42 | 51.64709 | -1.29623 | 24046 ft | 414 kts | 164° |
| 2026-05-07 14:42 | 51.61944 | -1.28260 | 24485 ft | 416 kts | 164° |
| 2026-05-07 14:42 | 51.59164 | -1.26891 | 24904 ft | 419 kts | 163° |
| 2026-05-07 14:43 | 51.56366 | -1.25516 | 25298 ft | 421 kts | 163° |
| 2026-05-07 14:43 | 51.53577 | -1.24145 | 25687 ft | 424 kts | 163° |
| 2026-05-07 14:43 | 51.50737 | -1.22753 | 26054 ft | 427 kts | 163° |
| 2026-05-07 14:43 | 51.47905 | -1.21250 | 26492 ft | 427 kts | 158° |
| 2026-05-07 14:44 | 51.45212 | -1.19267 | 27040 ft | 425 kts | 154° |
| 2026-05-07 14:44 | 51.42572 | -1.17180 | 27597 ft | 422 kts | 154° |
| 2026-05-07 14:44 | 51.39929 | -1.15150 | 28078 ft | 421 kts | 155° |
| 2026-05-07 14:44 | 51.37291 | -1.13183 | 28488 ft | 421 kts | 155° |
| 2026-05-07 14:45 | 51.34622 | -1.11230 | 28732 ft | 426 kts | 155° |
| 2026-05-07 14:45 | 51.31885 | -1.09238 | 28782 ft | 436 kts | 156° |
| 2026-05-07 14:45 | 51.26247 | -1.05125 | 28934 ft | 451 kts | 155° |
| 2026-05-07 14:46 | 51.20484 | -1.00925 | 29197 ft | 461 kts | 156° |
| 2026-05-07 14:46 | 51.17559 | -0.98800 | 29553 ft | 460 kts | 156° |
| 2026-05-07 14:46 | 51.14677 | -0.96710 | 29999 ft | 457 kts | 156° |
| 2026-05-07 14:47 | 51.11783 | -0.94615 | 30397 ft | 455 kts | 156° |
| 2026-05-07 14:47 | 51.08890 | -0.92523 | 30703 ft | 456 kts | 156° |
| 2026-05-07 14:47 | 51.05998 | -0.90434 | 30966 ft | 457 kts | 156° |
| 2026-05-07 14:47 | 51.03103 | -0.88345 | 31286 ft | 456 kts | 156° |
| 2026-05-07 14:48 | 51.00211 | -0.86260 | 31648 ft | 455 kts | 156° |
| 2026-05-07 14:48 | 50.97333 | -0.84188 | 31967 ft | 454 kts | 156° |
| 2026-05-07 14:48 | 50.94484 | -0.82140 | 32224 ft | 455 kts | 156° |
| 2026-05-07 14:48 | 50.91596 | -0.80067 | 32482 ft | 455 kts | 156° |
| 2026-05-07 14:49 | 50.88711 | -0.77999 | 32795 ft | 454 kts | 156° |
| 2026-05-07 14:49 | 50.85843 | -0.75927 | 33104 ft | 452 kts | 155° |
| 2026-05-07 14:49 | 50.83076 | -0.73507 | 33351 ft | 454 kts | 149° |
| 2026-05-07 14:49 | 50.80437 | -0.70847 | 33582 ft | 454 kts | 148° |
| 2026-05-07 14:50 | 50.77799 | -0.68086 | 33834 ft | 454 kts | 148° |
| 2026-05-07 14:50 | 50.75158 | -0.65308 | 34118 ft | 453 kts | 148° |
| 2026-05-07 14:50 | 50.72560 | -0.62593 | 34374 ft | 452 kts | 148° |
| 2026-05-07 14:50 | 50.69918 | -0.59868 | 34590 ft | 453 kts | 148° |
| 2026-05-07 14:51 | 50.67270 | -0.57163 | 34785 ft | 454 kts | 148° |
| 2026-05-07 14:51 | 50.64612 | -0.54465 | 35015 ft | 454 kts | 149° |
| 2026-05-07 14:51 | 50.61958 | -0.51783 | 35247 ft | 453 kts | 149° |
| 2026-05-07 14:51 | 50.59295 | -0.49098 | 35449 ft | 454 kts | 149° |
| 2026-05-07 14:52 | 50.56632 | -0.46418 | 35643 ft | 454 kts | 149° |
| 2026-05-07 14:52 | 50.53969 | -0.43739 | 35837 ft | 454 kts | 149° |
| 2026-05-07 14:52 | 50.51303 | -0.41062 | 36069 ft | 453 kts | 149° |
| 2026-05-07 14:52 | 50.48643 | -0.38392 | 36247 ft | 454 kts | 149° |
| 2026-05-07 14:53 | 50.46013 | -0.35756 | 36389 ft | 455 kts | 149° |
| 2026-05-07 14:53 | 50.43340 | -0.33079 | 36575 ft | 455 kts | 149° |
| 2026-05-07 14:53 | 50.40670 | -0.30411 | 36843 ft | 453 kts | 149° |
| 2026-05-07 14:53 | 50.38015 | -0.27756 | 37078 ft | 451 kts | 149° |
| 2026-05-07 14:54 | 50.32741 | -0.22502 | 37064 ft | 450 kts | 149° |
| 2026-05-07 14:54 | 50.27481 | -0.17276 | 37059 ft | 444 kts | 149° |
| 2026-05-07 14:55 | 50.22271 | -0.12113 | 37065 ft | 442 kts | 149° |
| 2026-05-07 14:55 | 50.17107 | -0.07005 | 37063 ft | 441 kts | 149° |
| 2026-05-07 14:56 | 50.11914 | -0.01897 | 37070 ft | 441 kts | 151° |
| 2026-05-07 14:56 | 50.06259 | 0.01660 | 37060 ft | 438 kts | 168° |
| 2026-05-07 14:57 | 50.00347 | 0.03884 | 37057 ft | 440 kts | 168° |
| 2026-05-07 14:57 | 49.94399 | 0.06136 | 37058 ft | 442 kts | 168° |
| 2026-05-07 14:58 | 49.88404 | 0.08466 | 37058 ft | 445 kts | 168° |
| 2026-05-07 14:58 | 49.82379 | 0.10821 | 37058 ft | 447 kts | 168° |
| 2026-05-07 14:59 | 49.76363 | 0.13168 | 37058 ft | 448 kts | 168° |
| 2026-05-07 14:59 | 49.70307 | 0.15521 | 37043 ft | 448 kts | 168° |
| 2026-05-07 15:00 | 49.64251 | 0.17910 | 37046 ft | 447 kts | 167° |
| 2026-05-07 15:00 | 49.58267 | 0.20347 | 37043 ft | 447 kts | 167° |
| 2026-05-07 15:01 | 49.52244 | 0.22794 | 37045 ft | 446 kts | 167° |
| 2026-05-07 15:01 | 49.46231 | 0.25223 | 37049 ft | 445 kts | 167° |
| 2026-05-07 15:02 | 49.40269 | 0.27622 | 37051 ft | 444 kts | 167° |
| 2026-05-07 15:02 | 49.34284 | 0.30024 | 37046 ft | 443 kts | 167° |
| 2026-05-07 15:03 | 49.28313 | 0.32440 | 37048 ft | 443 kts | 167° |
| 2026-05-07 15:03 | 49.22399 | 0.34934 | 37044 ft | 443 kts | 167° |
| 2026-05-07 15:04 | 49.16468 | 0.37443 | 37047 ft | 442 kts | 167° |
| 2026-05-07 15:04 | 49.11506 | 0.39527 | 37048 ft | 443 kts | 167° |
| 2026-05-07 15:05 | 49.04590 | 0.42419 | 37051 ft | 442 kts | 167° |
| 2026-05-07 15:05 | 48.99650 | 0.44480 | 37043 ft | 442 kts | 167° |
| 2026-05-07 15:06 | 48.93697 | 0.46954 | 37044 ft | 443 kts | 167° |
| 2026-05-07 15:06 | 48.87749 | 0.49421 | 37048 ft | 443 kts | 167° |
| 2026-05-07 15:07 | 48.81779 | 0.51892 | 37045 ft | 443 kts | 167° |
| 2026-05-07 15:07 | 48.75826 | 0.54315 | 37046 ft | 443 kts | 168° |
| 2026-05-07 15:08 | 48.69839 | 0.56640 | 37048 ft | 444 kts | 168° |
| 2026-05-07 15:08 | 48.63847 | 0.58965 | 37043 ft | 444 kts | 168° |
| 2026-05-07 15:09 | 48.57887 | 0.61287 | 37033 ft | 445 kts | 168° |
| 2026-05-07 15:09 | 48.51889 | 0.63620 | 37042 ft | 444 kts | 168° |
| 2026-05-07 15:10 | 48.45901 | 0.66034 | 37042 ft | 444 kts | 167° |
| 2026-05-07 15:10 | 48.39966 | 0.68463 | 37035 ft | 444 kts | 167° |
| 2026-05-07 15:11 | 48.33987 | 0.70891 | 37040 ft | 444 kts | 167° |
| 2026-05-07 15:11 | 48.28035 | 0.73296 | 37029 ft | 444 kts | 167° |
| 2026-05-07 15:12 | 48.22044 | 0.75698 | 37030 ft | 444 kts | 167° |
| 2026-05-07 15:12 | 48.16058 | 0.78051 | 37022 ft | 444 kts | 168° |
| 2026-05-07 15:13 | 48.10108 | 0.80384 | 37030 ft | 444 kts | 168° |